sensor_id;sensor_type;location;lat;lon;timestamp;temperature;humidity
55331;DHT22;58851;42.984;20.336;2023-05-14T00:02:12;333.00;128.00
55331;DHT22;58851;42.984;20.336;2023-05-14T00:04:38;332.90;128.00
55331;DHT22;58851;42.984;20.336;2023-05-14T00:07:04;333.00;128.00
55331;DHT22;58851;42.984;20.336;2023-05-14T00:09:31;332.90;128.00
55331;DHT22;58851;42.984;20.336;2023-05-14T00:11:57;332.80;128.00
55331;DHT22;58851;42.984;20.336;2023-05-14T00:14:22;332.90;128.00
55331;DHT22;58851;42.984;20.336;2023-05-14T00:16:48;332.90;128.00
55331;DHT22;58851;42.984;20.336;2023-05-14T00:19:14;332.90;128.00
55331;DHT22;58851;42.984;20.336;2023-05-14T00:21:40;332.90;128.00
55331;DHT22;58851;42.984;20.336;2023-05-14T00:24:05;333.00;128.00
55331;DHT22;58851;42.984;20.336;2023-05-14T00:26:31;333.00;128.00
55331;DHT22;58851;42.984;20.336;2023-05-14T00:28:57;332.90;128.00
55331;DHT22;58851;42.984;20.336;2023-05-14T00:31:23;332.90;128.00
55331;DHT22;58851;42.984;20.336;2023-05-14T00:33:48;332.80;128.00
55331;DHT22;58851;42.984;20.336;2023-05-14T00:36:14;332.80;128.00
55331;DHT22;58851;42.984;20.336;2023-05-14T00:38:40;308.10;128.00
55331;DHT22;58851;42.984;20.336;2023-05-14T00:41:06;308.00;128.00
55331;DHT22;58851;42.984;20.336;2023-05-14T00:43:32;308.10;128.00
55331;DHT22;58851;42.984;20.336;2023-05-14T00:45:58;308.00;128.00
55331;DHT22;58851;42.984;20.336;2023-05-14T00:48:24;308.10;128.00
55331;DHT22;58851;42.984;20.336;2023-05-14T00:50:50;308.10;128.00
55331;DHT22;58851;42.984;20.336;2023-05-14T00:53:18;308.10;128.00
55331;DHT22;58851;42.984;20.336;2023-05-14T00:55:44;308.10;128.00
55331;DHT22;58851;42.984;20.336;2023-05-14T00:58:12;332.80;128.00
55331;DHT22;58851;42.984;20.336;2023-05-14T01:00:39;332.80;128.00
55331;DHT22;58851;42.984;20.336;2023-05-14T01:03:06;332.90;128.00
55331;DHT22;58851;42.984;20.336;2023-05-14T01:06:05;332.90;128.00
55331;DHT22;58851;42.984;20.336;2023-05-14T01:11:29;332.90;128.00
55331;DHT22;58851;42.984;20.336;2023-05-14T01:16:30;332.90;128.00
55331;DHT22;58851;42.984;20.336;2023-05-14T01:18:59;332.90;128.00
55331;DHT22;58851;42.984;20.336;2023-05-14T01:21:42;332.90;128.00
55331;DHT22;58851;42.984;20.336;2023-05-14T01:24:08;332.80;128.00
55331;DHT22;58851;42.984;20.336;2023-05-14T01:26:34;332.90;128.00
55331;DHT22;58851;42.984;20.336;2023-05-14T01:29:21;332.90;128.00
55331;DHT22;58851;42.984;20.336;2023-05-14T01:31:49;332.80;128.00
55331;DHT22;58851;42.984;20.336;2023-05-14T01:34:15;332.80;128.00
55331;DHT22;58851;42.984;20.336;2023-05-14T01:36:43;332.80;128.00
55331;DHT22;58851;42.984;20.336;2023-05-14T01:39:11;332.90;128.00
55331;DHT22;58851;42.984;20.336;2023-05-14T01:41:38;332.80;128.00
55331;DHT22;58851;42.984;20.336;2023-05-14T01:44:04;308.10;128.00
55331;DHT22;58851;42.984;20.336;2023-05-14T01:46:33;308.00;128.00
55331;DHT22;58851;42.984;20.336;2023-05-14T01:48:59;308.00;128.00
55331;DHT22;58851;42.984;20.336;2023-05-14T01:51:25;308.00;128.00
55331;DHT22;58851;42.984;20.336;2023-05-14T01:53:51;308.10;128.00
55331;DHT22;58851;42.984;20.336;2023-05-14T01:56:19;332.80;128.00
55331;DHT22;58851;42.984;20.336;2023-05-14T01:58:46;332.80;128.00
55331;DHT22;58851;42.984;20.336;2023-05-14T02:01:12;332.80;128.00
55331;DHT22;58851;42.984;20.336;2023-05-14T02:03:38;332.80;128.00
55331;DHT22;58851;42.984;20.336;2023-05-14T02:06:03;332.80;128.00
55331;DHT22;58851;42.984;20.336;2023-05-14T02:08:29;332.80;128.00
55331;DHT22;58851;42.984;20.336;2023-05-14T02:10:55;332.80;128.00
55331;DHT22;58851;42.984;20.336;2023-05-14T02:13:21;332.90;128.00
55331;DHT22;58851;42.984;20.336;2023-05-14T02:15:48;332.90;128.00
55331;DHT22;58851;42.984;20.336;2023-05-14T02:18:13;332.90;128.00
55331;DHT22;58851;42.984;20.336;2023-05-14T02:20:39;332.90;128.00
55331;DHT22;58851;42.984;20.336;2023-05-14T02:23:05;332.90;128.00
55331;DHT22;58851;42.984;20.336;2023-05-14T02:25:31;332.90;128.00
55331;DHT22;58851;42.984;20.336;2023-05-14T02:27:56;332.90;128.00
55331;DHT22;58851;42.984;20.336;2023-05-14T02:30:22;332.80;128.00
55331;DHT22;58851;42.984;20.336;2023-05-14T02:32:48;332.80;128.00
55331;DHT22;58851;42.984;20.336;2023-05-14T02:35:14;332.80;128.00
55331;DHT22;58851;42.984;20.336;2023-05-14T02:37:40;332.80;128.00
55331;DHT22;58851;42.984;20.336;2023-05-14T02:40:06;332.90;128.00
55331;DHT22;58851;42.984;20.336;2023-05-14T02:42:33;332.80;128.00
55331;DHT22;58851;42.984;20.336;2023-05-14T02:44:59;332.80;128.00
55331;DHT22;58851;42.984;20.336;2023-05-14T02:47:25;332.80;128.00
55331;DHT22;58851;42.984;20.336;2023-05-14T02:49:51;332.80;128.00
55331;DHT22;58851;42.984;20.336;2023-05-14T02:52:17;332.80;128.00
55331;DHT22;58851;42.984;20.336;2023-05-14T02:54:43;332.80;128.00
55331;DHT22;58851;42.984;20.336;2023-05-14T02:57:08;332.80;128.00
55331;DHT22;58851;42.984;20.336;2023-05-14T02:59:34;332.80;128.00
55331;DHT22;58851;42.984;20.336;2023-05-14T03:02:00;308.10;128.00
55331;DHT22;58851;42.984;20.336;2023-05-14T03:04:26;332.80;128.00
55331;DHT22;58851;42.984;20.336;2023-05-14T03:06:52;332.80;128.00
55331;DHT22;58851;42.984;20.336;2023-05-14T03:09:17;332.90;128.00
55331;DHT22;58851;42.984;20.336;2023-05-14T03:11:44;332.90;128.00
55331;DHT22;58851;42.984;20.336;2023-05-14T03:14:10;332.80;128.00
55331;DHT22;58851;42.984;20.336;2023-05-14T03:16:36;332.80;128.00
55331;DHT22;58851;42.984;20.336;2023-05-14T03:19:01;332.80;128.00
55331;DHT22;58851;42.984;20.336;2023-05-14T03:21:27;332.80;128.00
55331;DHT22;58851;42.984;20.336;2023-05-14T03:23:53;332.80;128.00
55331;DHT22;58851;42.984;20.336;2023-05-14T03:26:19;332.80;128.00
55331;DHT22;58851;42.984;20.336;2023-05-14T03:28:46;332.80;128.00
55331;DHT22;58851;42.984;20.336;2023-05-14T03:31:11;332.80;128.00
55331;DHT22;58851;42.984;20.336;2023-05-14T03:33:37;332.80;128.00
55331;DHT22;58851;42.984;20.336;2023-05-14T03:36:03;332.80;128.00
55331;DHT22;58851;42.984;20.336;2023-05-14T03:38:29;332.80;128.00
55331;DHT22;58851;42.984;20.336;2023-05-14T03:40:56;332.80;128.00
55331;DHT22;58851;42.984;20.336;2023-05-14T03:43:21;332.80;128.00
55331;DHT22;58851;42.984;20.336;2023-05-14T03:45:47;332.80;128.00
55331;DHT22;58851;42.984;20.336;2023-05-14T03:48:17;332.80;128.00
55331;DHT22;58851;42.984;20.336;2023-05-14T03:50:44;332.90;128.00
55331;DHT22;58851;42.984;20.336;2023-05-14T03:53:10;332.80;128.00
55331;DHT22;58851;42.984;20.336;2023-05-14T03:55:35;332.80;128.00
55331;DHT22;58851;42.984;20.336;2023-05-14T03:58:02;332.80;128.00
55331;DHT22;58851;42.984;20.336;2023-05-14T04:00:28;332.90;128.00
55331;DHT22;58851;42.984;20.336;2023-05-14T04:02:53;332.80;128.00
55331;DHT22;58851;42.984;20.336;2023-05-14T04:05:19;332.80;128.00
55331;DHT22;58851;42.984;20.336;2023-05-14T04:07:45;332.90;128.00
55331;DHT22;58851;42.984;20.336;2023-05-14T04:10:12;332.90;128.00
55331;DHT22;58851;42.984;20.336;2023-05-14T04:12:38;332.90;128.00
55331;DHT22;58851;42.984;20.336;2023-05-14T04:15:04;332.90;128.00
55331;DHT22;58851;42.984;20.336;2023-05-14T04:17:31;333.00;128.00
55331;DHT22;58851;42.984;20.336;2023-05-14T04:19:56;332.90;128.00
55331;DHT22;58851;42.984;20.336;2023-05-14T04:22:22;332.90;128.00
55331;DHT22;58851;42.984;20.336;2023-05-14T04:24:48;333.00;128.00
55331;DHT22;58851;42.984;20.336;2023-05-14T04:27:19;333.00;128.00
55331;DHT22;58851;42.984;20.336;2023-05-14T04:29:46;333.10;128.00
55331;DHT22;58851;42.984;20.336;2023-05-14T04:32:12;333.10;128.00
55331;DHT22;58851;42.984;20.336;2023-05-14T04:34:39;333.10;128.00
55331;DHT22;58851;42.984;20.336;2023-05-14T04:37:05;333.10;128.00
55331;DHT22;58851;42.984;20.336;2023-05-14T04:39:31;333.10;128.00
55331;DHT22;58851;42.984;20.336;2023-05-14T04:41:57;333.10;128.00
55331;DHT22;58851;42.984;20.336;2023-05-14T04:44:23;333.20;128.00
55331;DHT22;58851;42.984;20.336;2023-05-14T04:46:49;333.20;128.00
55331;DHT22;58851;42.984;20.336;2023-05-14T04:49:14;333.20;128.00
55331;DHT22;58851;42.984;20.336;2023-05-14T04:51:40;333.20;128.00
55331;DHT22;58851;42.984;20.336;2023-05-14T04:54:06;333.30;128.00
55331;DHT22;58851;42.984;20.336;2023-05-14T04:56:32;333.20;128.00
55331;DHT22;58851;42.984;20.336;2023-05-14T04:58:58;333.20;128.00
55331;DHT22;58851;42.984;20.336;2023-05-14T05:01:23;333.10;128.00
55331;DHT22;58851;42.984;20.336;2023-05-14T05:03:49;333.10;128.00
55331;DHT22;58851;42.984;20.336;2023-05-14T05:06:15;333.10;128.00
55331;DHT22;58851;42.984;20.336;2023-05-14T05:08:41;333.10;128.00
55331;DHT22;58851;42.984;20.336;2023-05-14T05:11:06;333.20;128.00
55331;DHT22;58851;42.984;20.336;2023-05-14T05:13:32;333.20;128.00
55331;DHT22;58851;42.984;20.336;2023-05-14T05:15:58;333.30;128.00
55331;DHT22;58851;42.984;20.336;2023-05-14T05:18:24;333.30;128.00
55331;DHT22;58851;42.984;20.336;2023-05-14T05:20:49;333.30;128.00
55331;DHT22;58851;42.984;20.336;2023-05-14T05:23:16;333.30;128.00
55331;DHT22;58851;42.984;20.336;2023-05-14T05:25:41;333.40;128.00
55331;DHT22;58851;42.984;20.336;2023-05-14T05:28:07;333.50;128.00
55331;DHT22;58851;42.984;20.336;2023-05-14T05:30:33;333.50;128.00
55331;DHT22;58851;42.984;20.336;2023-05-14T05:32:59;333.60;128.00
55331;DHT22;58851;42.984;20.336;2023-05-14T05:35:24;333.60;128.00
55331;DHT22;58851;42.984;20.336;2023-05-14T05:37:50;333.70;128.00
55331;DHT22;58851;42.984;20.336;2023-05-14T05:40:16;333.70;128.00
55331;DHT22;58851;42.984;20.336;2023-05-14T05:42:42;358.50;128.00
55331;DHT22;58851;42.984;20.336;2023-05-14T05:45:08;358.60;128.00
55331;DHT22;58851;42.984;20.336;2023-05-14T05:47:34;358.50;128.00
55331;DHT22;58851;42.984;20.336;2023-05-14T05:50:00;358.40;128.00
55331;DHT22;58851;42.984;20.336;2023-05-14T05:52:25;333.60;128.00
55331;DHT22;58851;42.984;20.336;2023-05-14T05:54:51;333.60;128.00
55331;DHT22;58851;42.984;20.336;2023-05-14T05:57:17;333.60;128.00
55331;DHT22;58851;42.984;20.336;2023-05-14T05:59:43;333.60;128.00
55331;DHT22;58851;42.984;20.336;2023-05-14T06:02:08;333.40;128.00
55331;DHT22;58851;42.984;20.336;2023-05-14T06:04:34;333.50;128.00
55331;DHT22;58851;42.984;20.336;2023-05-14T06:07:00;333.40;128.00
55331;DHT22;58851;42.984;20.336;2023-05-14T06:09:26;333.50;128.00
55331;DHT22;58851;42.984;20.336;2023-05-14T06:11:52;333.70;128.00
55331;DHT22;58851;42.984;20.336;2023-05-14T06:14:17;358.40;128.00
55331;DHT22;58851;42.984;20.336;2023-05-14T06:16:43;333.70;128.00
55331;DHT22;58851;42.984;20.336;2023-05-14T06:19:09;358.40;128.00
55331;DHT22;58851;42.984;20.336;2023-05-14T06:21:35;358.40;128.00
55331;DHT22;58851;42.984;20.336;2023-05-14T06:24:01;333.70;128.00
55331;DHT22;58851;42.984;20.336;2023-05-14T06:26:27;333.70;128.00
55331;DHT22;58851;42.984;20.336;2023-05-14T06:28:53;333.70;128.00
55331;DHT22;58851;42.984;20.336;2023-05-14T06:31:19;358.40;128.00
55331;DHT22;58851;42.984;20.336;2023-05-14T06:33:44;333.70;128.00
55331;DHT22;58851;42.984;20.336;2023-05-14T06:36:10;358.40;128.00
55331;DHT22;58851;42.984;20.336;2023-05-14T06:38:36;358.40;128.00
55331;DHT22;58851;42.984;20.336;2023-05-14T06:41:02;358.40;128.00
55331;DHT22;58851;42.984;20.336;2023-05-14T06:43:28;358.40;128.00
55331;DHT22;58851;42.984;20.336;2023-05-14T06:45:54;358.40;128.00
55331;DHT22;58851;42.984;20.336;2023-05-14T06:48:20;358.50;128.00
55331;DHT22;58851;42.984;20.336;2023-05-14T06:50:47;358.60;128.00
55331;DHT22;58851;42.984;20.336;2023-05-14T06:53:13;358.70;128.00
55331;DHT22;58851;42.984;20.336;2023-05-14T06:55:40;358.80;128.00
55331;DHT22;58851;42.984;20.336;2023-05-14T06:58:06;359.00;128.00
55331;DHT22;58851;42.984;20.336;2023-05-14T07:00:32;359.20;128.00
55331;DHT22;58851;42.984;20.336;2023-05-14T07:02:58;359.30;128.00
55331;DHT22;58851;42.984;20.336;2023-05-14T07:05:24;384.00;128.00
55331;DHT22;58851;42.984;20.336;2023-05-14T07:07:50;384.10;128.00
55331;DHT22;58851;42.984;20.336;2023-05-14T07:10:15;384.20;128.00
55331;DHT22;58851;42.984;20.336;2023-05-14T07:12:41;384.30;128.00
55331;DHT22;58851;42.984;20.336;2023-05-14T07:15:07;384.40;128.00
55331;DHT22;58851;42.984;20.336;2023-05-14T07:17:33;384.30;128.00
55331;DHT22;58851;42.984;20.336;2023-05-14T07:19:59;384.30;128.00
55331;DHT22;58851;42.984;20.336;2023-05-14T07:22:25;384.60;384.00
55331;DHT22;58851;42.984;20.336;2023-05-14T07:24:51;384.70;128.00
55331;DHT22;58851;42.984;20.336;2023-05-14T07:27:17;384.80;281.60
55331;DHT22;58851;42.984;20.336;2023-05-14T07:29:43;409.60;281.60
55331;DHT22;58851;42.984;20.336;2023-05-14T07:32:09;409.80;512.00
55331;DHT22;58851;42.984;20.336;2023-05-14T07:34:35;410.00;128.00
55331;DHT22;58851;42.984;20.336;2023-05-14T07:37:01;410.20;128.00
55331;DHT22;58851;42.984;20.336;2023-05-14T07:39:27;410.10;128.00
55331;DHT22;58851;42.984;20.336;2023-05-14T07:41:53;410.00;128.00
55331;DHT22;58851;42.984;20.336;2023-05-14T07:44:21;409.90;128.00
55331;DHT22;58851;42.984;20.336;2023-05-14T07:46:47;409.90;128.00
55331;DHT22;58851;42.984;20.336;2023-05-14T07:49:13;409.60;281.60
55331;DHT22;58851;42.984;20.336;2023-05-14T07:51:39;409.60;128.00
55331;DHT22;58851;42.984;20.336;2023-05-14T07:54:04;409.80;409.60
55331;DHT22;58851;42.984;20.336;2023-05-14T07:56:30;410.00;358.40
55331;DHT22;58851;42.984;20.336;2023-05-14T07:58:56;410.10;153.60
55331;DHT22;58851;42.984;20.336;2023-05-14T08:01:22;410.20;128.00
55331;DHT22;58851;42.984;20.336;2023-05-14T08:03:49;410.20;128.00
55331;DHT22;58851;42.984;20.336;2023-05-14T08:06:15;410.30;128.00
55331;DHT22;58851;42.984;20.336;2023-05-14T08:08:41;410.40;128.00
55331;DHT22;58851;42.984;20.336;2023-05-14T08:11:06;410.40;128.00
55331;DHT22;58851;42.984;20.336;2023-05-14T08:13:32;410.40;128.00
55331;DHT22;58851;42.984;20.336;2023-05-14T08:15:58;410.50;128.00
55331;DHT22;58851;42.984;20.336;2023-05-14T08:18:24;435.20;128.00
55331;DHT22;58851;42.984;20.336;2023-05-14T08:20:49;435.40;128.00
55331;DHT22;58851;42.984;20.336;2023-05-14T08:23:16;435.50;128.00
55331;DHT22;58851;42.984;20.336;2023-05-14T08:25:41;435.80;128.00
55331;DHT22;58851;42.984;20.336;2023-05-14T08:28:07;435.80;128.00
55331;DHT22;58851;42.984;20.336;2023-05-14T08:30:33;435.90;128.00
55331;DHT22;58851;42.984;20.336;2023-05-14T08:32:59;460.80;128.00
55331;DHT22;58851;42.984;20.336;2023-05-14T08:35:25;460.80;128.00
55331;DHT22;58851;42.984;20.336;2023-05-14T08:37:51;460.90;128.00
55331;DHT22;58851;42.984;20.336;2023-05-14T08:40:17;460.90;128.00
55331;DHT22;58851;42.984;20.336;2023-05-14T08:42:43;461.00;128.00
55331;DHT22;58851;42.984;20.336;2023-05-14T08:45:23;461.10;128.00
55331;DHT22;58851;42.984;20.336;2023-05-14T08:47:52;461.10;128.00
55331;DHT22;58851;42.984;20.336;2023-05-14T08:50:19;461.00;128.00
55331;DHT22;58851;42.984;20.336;2023-05-14T08:52:45;461.00;128.00
55331;DHT22;58851;42.984;20.336;2023-05-14T08:55:11;461.30;128.00
55331;DHT22;58851;42.984;20.336;2023-05-14T08:57:37;461.40;128.00
55331;DHT22;58851;42.984;20.336;2023-05-14T09:00:04;461.70;358.40
55331;DHT22;58851;42.984;20.336;2023-05-14T09:02:40;486.40;537.60
55331;DHT22;58851;42.984;20.336;2023-05-14T09:05:07;486.70;128.00
55331;DHT22;58851;42.984;20.336;2023-05-14T09:07:36;487.00;128.00
55331;DHT22;58851;42.984;20.336;2023-05-14T09:10:03;487.20;614.40
55331;DHT22;58851;42.984;20.336;2023-05-14T09:12:30;487.20;307.20
55331;DHT22;58851;42.984;20.336;2023-05-14T09:14:56;512.00;128.00
55331;DHT22;58851;42.984;20.336;2023-05-14T09:17:24;512.00;128.00
55331;DHT22;58851;42.984;20.336;2023-05-14T09:19:50;512.20;128.00
55331;DHT22;58851;42.984;20.336;2023-05-14T09:22:18;512.40;128.00
55331;DHT22;58851;42.984;20.336;2023-05-14T09:24:44;512.50;128.00
55331;DHT22;58851;42.984;20.336;2023-05-14T09:27:19;512.50;128.00
55331;DHT22;58851;42.984;20.336;2023-05-14T09:29:46;512.60;128.00
55331;DHT22;58851;42.984;20.336;2023-05-14T09:32:12;512.60;128.00
55331;DHT22;58851;42.984;20.336;2023-05-14T09:34:38;512.30;128.00
55331;DHT22;58851;42.984;20.336;2023-05-14T09:37:06;512.10;128.00
55331;DHT22;58851;42.984;20.336;2023-05-14T09:39:33;512.40;128.00
55331;DHT22;58851;42.984;20.336;2023-05-14T09:42:01;512.40;128.00
55331;DHT22;58851;42.984;20.336;2023-05-14T09:44:27;512.40;128.00
55331;DHT22;58851;42.984;20.336;2023-05-14T09:46:53;512.30;128.00
55331;DHT22;58851;42.984;20.336;2023-05-14T09:49:20;512.00;128.00
55331;DHT22;58851;42.984;20.336;2023-05-14T09:51:46;487.20;128.00
55331;DHT22;58851;42.984;20.336;2023-05-14T09:54:12;487.10;128.00
55331;DHT22;58851;42.984;20.336;2023-05-14T09:56:38;486.80;128.00
55331;DHT22;58851;42.984;20.336;2023-05-14T09:59:04;486.70;128.00
55331;DHT22;58851;42.984;20.336;2023-05-14T10:01:31;486.90;128.00
55331;DHT22;58851;42.984;20.336;2023-05-14T10:03:57;487.10;128.00
55331;DHT22;58851;42.984;20.336;2023-05-14T10:06:29;487.10;128.00
55331;DHT22;58851;42.984;20.336;2023-05-14T10:09:00;487.20;128.00
55331;DHT22;58851;42.984;20.336;2023-05-14T10:11:31;512.00;128.00
55331;DHT22;58851;42.984;20.336;2023-05-14T10:14:07;512.00;128.00
55331;DHT22;58851;42.984;20.336;2023-05-14T10:16:39;487.30;128.00
55331;DHT22;58851;42.984;20.336;2023-05-14T10:19:12;487.20;128.00
55331;DHT22;58851;42.984;20.336;2023-05-14T10:21:40;487.20;128.00
55331;DHT22;58851;42.984;20.336;2023-05-14T10:24:09;512.00;128.00
55331;DHT22;58851;42.984;20.336;2023-05-14T10:26:37;512.20;128.00
55331;DHT22;58851;42.984;20.336;2023-05-14T10:29:09;512.20;128.00
55331;DHT22;58851;42.984;20.336;2023-05-14T10:31:45;512.30;128.00
55331;DHT22;58851;42.984;20.336;2023-05-14T10:34:43;512.30;128.00
55331;DHT22;58851;42.984;20.336;2023-05-14T10:37:20;512.10;128.00
55331;DHT22;58851;42.984;20.336;2023-05-14T10:39:50;512.00;128.00
55331;DHT22;58851;42.984;20.336;2023-05-14T10:42:27;512.00;128.00
55331;DHT22;58851;42.984;20.336;2023-05-14T10:44:55;487.30;128.00
55331;DHT22;58851;42.984;20.336;2023-05-14T10:47:29;487.10;128.00
55331;DHT22;58851;42.984;20.336;2023-05-14T10:49:57;487.00;128.00
55331;DHT22;58851;42.984;20.336;2023-05-14T10:52:24;486.80;128.00
55331;DHT22;58851;42.984;20.336;2023-05-14T10:54:57;486.60;128.00
55331;DHT22;58851;42.984;20.336;2023-05-14T10:57:24;486.60;128.00
55331;DHT22;58851;42.984;20.336;2023-05-14T10:59:53;486.40;128.00
55331;DHT22;58851;42.984;20.336;2023-05-14T11:04:58;461.60;128.00
55331;DHT22;58851;42.984;20.336;2023-05-14T11:07:33;461.60;128.00
55331;DHT22;58851;42.984;20.336;2023-05-14T11:10:19;461.50;128.00
55331;DHT22;58851;42.984;20.336;2023-05-14T11:12:47;461.30;128.00
55331;DHT22;58851;42.984;20.336;2023-05-14T11:15:21;461.10;128.00
55331;DHT22;58851;42.984;20.336;2023-05-14T11:17:48;461.10;128.00
55331;DHT22;58851;42.984;20.336;2023-05-14T11:20:14;461.00;128.00
55331;DHT22;58851;42.984;20.336;2023-05-14T11:22:41;461.00;128.00
55331;DHT22;58851;42.984;20.336;2023-05-14T11:25:08;460.90;128.00
55331;DHT22;58851;42.984;20.336;2023-05-14T11:27:37;460.80;128.00
55331;DHT22;58851;42.984;20.336;2023-05-14T11:30:04;436.10;204.80
55331;DHT22;58851;42.984;20.336;2023-05-14T11:32:34;436.10;128.00
55331;DHT22;58851;42.984;20.336;2023-05-14T11:35:00;436.10;128.00
55331;DHT22;58851;42.984;20.336;2023-05-14T11:37:25;436.10;128.00
55331;DHT22;58851;42.984;20.336;2023-05-14T11:39:53;436.10;128.00
55331;DHT22;58851;42.984;20.336;2023-05-14T11:42:20;436.10;128.00
55331;DHT22;58851;42.984;20.336;2023-05-14T11:44:48;460.80;128.00
55331;DHT22;58851;42.984;20.336;2023-05-14T11:47:15;460.80;128.00
55331;DHT22;58851;42.984;20.336;2023-05-14T11:49:41;460.80;256.00
55331;DHT22;58851;42.984;20.336;2023-05-14T11:52:08;436.10;128.00
55331;DHT22;58851;42.984;20.336;2023-05-14T11:54:43;436.10;128.00
55331;DHT22;58851;42.984;20.336;2023-05-14T11:57:11;436.10;128.00
55331;DHT22;58851;42.984;20.336;2023-05-14T11:59:37;436.00;128.00
55331;DHT22;58851;42.984;20.336;2023-05-14T12:02:07;436.00;153.60
55331;DHT22;58851;42.984;20.336;2023-05-14T12:04:33;436.00;128.00
55331;DHT22;58851;42.984;20.336;2023-05-14T12:07:03;436.00;128.00
55331;DHT22;58851;42.984;20.336;2023-05-14T12:09:35;436.00;128.00
55331;DHT22;58851;42.984;20.336;2023-05-14T12:12:08;436.00;128.00
55331;DHT22;58851;42.984;20.336;2023-05-14T12:14:40;435.90;128.00
55331;DHT22;58851;42.984;20.336;2023-05-14T12:17:19;435.80;128.00
55331;DHT22;58851;42.984;20.336;2023-05-14T12:19:47;435.80;128.00
55331;DHT22;58851;42.984;20.336;2023-05-14T12:22:15;435.80;230.40
55331;DHT22;58851;42.984;20.336;2023-05-14T12:25:01;435.80;128.00
55331;DHT22;58851;42.984;20.336;2023-05-14T12:27:28;435.80;128.00
55331;DHT22;58851;42.984;20.336;2023-05-14T12:30:02;435.80;486.40
55331;DHT22;58851;42.984;20.336;2023-05-14T12:32:34;435.80;179.20
55331;DHT22;58851;42.984;20.336;2023-05-14T12:35:02;435.80;128.00
55331;DHT22;58851;42.984;20.336;2023-05-14T12:37:29;435.70;256.00
55331;DHT22;58851;42.984;20.336;2023-05-14T12:39:55;435.70;128.00
55331;DHT22;58851;42.984;20.336;2023-05-14T12:42:20;435.80;128.00
55331;DHT22;58851;42.984;20.336;2023-05-14T12:44:46;435.80;128.00
55331;DHT22;58851;42.984;20.336;2023-05-14T12:47:12;436.00;128.00
55331;DHT22;58851;42.984;20.336;2023-05-14T12:49:38;436.00;128.00
55331;DHT22;58851;42.984;20.336;2023-05-14T12:52:05;436.00;563.20
55331;DHT22;58851;42.984;20.336;2023-05-14T12:54:31;436.00;563.20
55331;DHT22;58851;42.984;20.336;2023-05-14T12:56:57;435.90;128.00
55331;DHT22;58851;42.984;20.336;2023-05-14T12:59:23;435.80;128.00
55331;DHT22;58851;42.984;20.336;2023-05-14T13:01:48;435.60;128.00
55331;DHT22;58851;42.984;20.336;2023-05-14T13:04:14;435.50;128.00
55331;DHT22;58851;42.984;20.336;2023-05-14T13:06:40;435.50;128.00
55331;DHT22;58851;42.984;20.336;2023-05-14T13:09:06;435.40;128.00
55331;DHT22;58851;42.984;20.336;2023-05-14T13:11:33;435.50;128.00
55331;DHT22;58851;42.984;20.336;2023-05-14T13:14:01;435.60;128.00
55331;DHT22;58851;42.984;20.336;2023-05-14T13:16:27;435.70;128.00
55331;DHT22;58851;42.984;20.336;2023-05-14T13:18:54;435.80;128.00
55331;DHT22;58851;42.984;20.336;2023-05-14T13:21:20;435.80;128.00
55331;DHT22;58851;42.984;20.336;2023-05-14T13:23:47;435.80;128.00
55331;DHT22;58851;42.984;20.336;2023-05-14T13:26:13;435.70;128.00
55331;DHT22;58851;42.984;20.336;2023-05-14T13:28:39;435.80;179.20
55331;DHT22;58851;42.984;20.336;2023-05-14T13:31:08;435.80;128.00
55331;DHT22;58851;42.984;20.336;2023-05-14T13:33:36;435.90;588.80
55331;DHT22;58851;42.984;20.336;2023-05-14T13:36:02;435.80;435.20
55331;DHT22;58851;42.984;20.336;2023-05-14T13:38:29;435.70;409.60
55331;DHT22;58851;42.984;20.336;2023-05-14T13:40:55;435.60;281.60
55331;DHT22;58851;42.984;20.336;2023-05-14T13:43:26;435.60;128.00
55331;DHT22;58851;42.984;20.336;2023-05-14T13:45:52;435.60;537.60
55331;DHT22;58851;42.984;20.336;2023-05-14T13:48:18;435.50;665.60
55331;DHT22;58851;42.984;20.336;2023-05-14T13:50:43;435.40;640.00
55331;DHT22;58851;42.984;20.336;2023-05-14T13:53:09;435.40;409.60
55331;DHT22;58851;42.984;20.336;2023-05-14T13:55:35;435.40;128.00
55331;DHT22;58851;42.984;20.336;2023-05-14T13:58:01;435.40;614.40
55331;DHT22;58851;42.984;20.336;2023-05-14T14:00:27;435.50;640.00
55331;DHT22;58851;42.984;20.336;2023-05-14T14:02:53;435.50;204.80
55331;DHT22;58851;42.984;20.336;2023-05-14T14:05:19;435.40;614.40
55331;DHT22;58851;42.984;20.336;2023-05-14T14:07:45;435.40;128.00
55331;DHT22;58851;42.984;20.336;2023-05-14T14:10:11;435.40;358.40
55331;DHT22;58851;42.984;20.336;2023-05-14T14:12:38;435.50;128.00
55331;DHT22;58851;42.984;20.336;2023-05-14T14:15:05;435.40;435.20
55331;DHT22;58851;42.984;20.336;2023-05-14T14:17:30;435.50;128.00
55331;DHT22;58851;42.984;20.336;2023-05-14T14:19:58;435.50;281.60
55331;DHT22;58851;42.984;20.336;2023-05-14T14:22:24;435.50;128.00
55331;DHT22;58851;42.984;20.336;2023-05-14T14:24:50;435.40;128.00
55331;DHT22;58851;42.984;20.336;2023-05-14T14:27:15;435.40;614.40
55331;DHT22;58851;42.984;20.336;2023-05-14T14:29:41;435.50;128.00
55331;DHT22;58851;42.984;20.336;2023-05-14T14:32:07;435.50;128.00
55331;DHT22;58851;42.984;20.336;2023-05-14T14:34:33;435.40;128.00
55331;DHT22;58851;42.984;20.336;2023-05-14T14:36:59;435.50;128.00
55331;DHT22;58851;42.984;20.336;2023-05-14T14:39:25;435.50;128.00
55331;DHT22;58851;42.984;20.336;2023-05-14T14:41:51;435.50;128.00
55331;DHT22;58851;42.984;20.336;2023-05-14T14:44:17;435.60;128.00
55331;DHT22;58851;42.984;20.336;2023-05-14T14:46:42;435.60;128.00
55331;DHT22;58851;42.984;20.336;2023-05-14T14:49:08;435.60;128.00
55331;DHT22;58851;42.984;20.336;2023-05-14T14:51:34;435.70;128.00
55331;DHT22;58851;42.984;20.336;2023-05-14T14:54:00;435.70;307.20
55331;DHT22;58851;42.984;20.336;2023-05-14T14:56:26;435.60;128.00